Nearby METAR Reports

 

KMEV - Minden, Nevada, USA
Distance from station: N 3mi, 5km
Updated: Wed, 20-Jun-2018 9:35pm PDT
Clear
Clear
 Wind from calm
Wind: Calm
Temperature: 66°F , 19°C
Dew Point: 32°F , 0°C
Humidity: 28%
Barometer: 30.09 inHg , 1019 hPa
Clouds: Clear
Visibility: 10 miles , 16 km
2018/06/21 04:35 KMEV 210435Z AUTO 00000KT 10SM CLR 19/00 A3009 RMK AO2
KCXP - Carson City, Nevada, USA
Distance from station: N 10mi, 16km
Updated: Wed, 20-Jun-2018 9:55pm PDT
Clear
Clear
 Wind from NNW
Wind: NNW 5 mph , 7 km/h
Temperature: 73°F , 23°C
Dew Point: 36°F , 2°C
Humidity: 25%
Barometer: 30.10 inHg , 1019.3 hPa
Clouds: Clear
Visibility: 10 miles , 16 km
2018/06/21 04:55 KCXP 210455Z AUTO 33004KT 10SM CLR 23/02 A3010 RMK AO2
 
KTVL - South Lake Tahoe, California, USA
Distance from station: WSW 18mi, 29km
Updated: Wed, 20-Jun-2018 9:53pm PDT
Clear
Clear
 Wind from varies
Wind: varies 6 mph , 9 km/h
Temperature: 63°F , 17°C
Dew Point: 45°F , 7°C
Humidity: 52%
Barometer: 30.20 inHg , 1022.7 hPa
Clouds: Clear
Visibility: 10 miles , 16 km
2018/06/21 04:53 KTVL 210453Z AUTO VRB05KT 10SM CLR 17/07 A3020 RMK AO2 SLP162 T01720067
KTRK - Truckee Tahoe, California, USA
Distance from station: NW 29mi, 46km
Updated: Wed, 20-Jun-2018 9:35pm PDT
Clear
Clear
 Wind from calm
Wind: Calm
Temperature: 59°F , 15°C
Dew Point: 34°F , 1°C
Humidity: 39%
Barometer: 30.20 inHg , 1022.7 hPa
Clouds: Clear
Visibility: 10 miles , 16 km
2018/06/21 04:35 KTRK 210435Z AUTO 00000KT 10SM CLR 15/01 A3020 RMK AO2
 
KRNO - Reno, Nevada, USA
Distance from station: N 31mi, 50km
Updated: Wed, 20-Jun-2018 8:55pm PDT
Few Clouds
Few Clouds
 Wind from WNW
Wind: WNW 13 mph , 20 km/h
Temperature: 79°F , 26°C
Dew Point: 32°F , 0°C
Humidity: 18%
Barometer: 30.06 inHg , 1017.9 hPa
Clouds: Few Clouds
Visibility: 10 miles , 16 km
Cloud details: Few Clouds 18000 ft
2018/06/21 03:55 KRNO 210355Z 30011KT 10SM FEW180 26/00 A3006 RMK AO2 SLP123 T02560000
KRTS - Reno/Stead, Nevada, USA
Distance from station: NNW 44mi, 71km
Updated: Wed, 20-Jun-2018 9:35pm PDT
Clear
Clear
 Wind from WSW
Wind: WSW 18 mph , 30 km/h
Temperature: 72°F , 22°C
Dew Point: 16°F , -9°C
Humidity: 12%
Barometer: 30.11 inHg , 1019.6 hPa
Clouds: Clear
Visibility: 10 miles , 16 km
2018/06/21 04:35 KRTS 210435Z AUTO 24016KT 10SM CLR 22/M09 A3011 RMK AO2
 
KBLU - Emigrant Gap, California, USA
Distance from station: WNW 55mi, 89km
Updated: Wed, 20-Jun-2018 9:52pm PDT
Clear
Clear
 Wind from calm
Wind: Calm
Temperature: 63°F , 17°C
Dew Point: 45°F , 7°C
Humidity: 52%
Barometer: 30.18 inHg , 1022 hPa
Clouds: Clear
Visibility: 10 miles , 16 km
2018/06/21 04:52 KBLU 210452Z AUTO 00000KT 10SM CLR 17/07 A3018 RMK AO2 SLP138 T01670067
KPVF - Placerville, California, USA
Distance from station: WSW 60mi, 96km
Updated: Wed, 20-Jun-2018 9:35pm PDT
Clear
Clear
 Wind from SE
Wind: SE 6 mph , 9 km/h
Temperature: 68°F , 20°C
Dew Point: 41°F , 5°C
Humidity: 38%
Barometer: 30.04 inHg , 1017.3 hPa
Clouds: Clear
Visibility: 10 miles , 16 km
2018/06/21 04:35 KPVF 210435Z AUTO 13005KT 10SM CLR 20/05 A3004 RMK AO1
 
KNFL - Fallon Nas, Nevada, USA
Distance from station: ENE 61mi, 97km
Updated: Wed, 20-Jun-2018 8:56pm PDT
Partly cloudy
Partly cloudy
 Wind from WNW
Wind: WNW 18 mph , 30 km/h, Gust: 24 mph , 39 km/h
Temperature: 82°F , 28°C
Dew Point: 27°F , -3°C
Humidity: 13%
Barometer: 29.98 inHg , 1015.2 hPa
Clouds: Partly cloudy
Visibility: 10 miles , 16 km
Cloud details: Few Clouds 12000 ft
Partly cloudy 15000 ft
Partly cloudy 20000 ft
2018/06/21 03:56 KNFL 210356Z 29016G21KT 10SM FEW120 SCT150 SCT200 28/M03 A2998 RMK AO2 SLP122 ACSL DSNT NE-E T02781033
KGOO - Grass Valley, California, USA
Distance from station: W 70mi, 112km
Updated: Wed, 20-Jun-2018 9:35pm PDT
Clear
Clear
 Wind from calm
Wind: Calm
Temperature: 70°F , 21°C
Dew Point: 45°F , 7°C
Humidity: 40%
Barometer: 30.04 inHg , 1017.3 hPa
Clouds: Clear
Visibility: 10 miles , 16 km
2018/06/21 04:35 KGOO 210435Z AUTO 00000KT 10SM CLR 21/07 A3004 RMK AO1
 
KAUN - Auburn Muni, California, USA
Distance from station: W 73mi, 118km
Updated: Wed, 20-Jun-2018 9:35pm PDT
Clear
Clear
 Wind from SSE
Wind: SSE 3 mph , 6 km/h
Temperature: 73°F , 23°C
Dew Point: 45°F , 7°C
Humidity: 36%
Barometer: 29.96 inHg , 1014.6 hPa
Clouds: Clear
Visibility: 10 miles , 16 km
2018/06/21 04:35 KAUN 210435Z AUTO 16003KT 10SM CLR 23/07 A2996 RMK AO1
KO22 - Columbia, California, USA
Distance from station: SSW 79mi, 127km
Updated: Thu, 24-May-2018 4:35am PDT
NOT Current
Overcast
Overcast
 Wind from calm
Wind: Calm
Temperature: 50°F , 10°C
Dew Point: 48°F , 9°C
Humidity: 94%
Barometer: 29.97 inHg , 1014.9 hPa
Clouds: Overcast
Visibility: 10 miles , 16 km
Cloud details: Overcast 3800 ft
2018/05/24 11:35 KO22 241135Z AUTO 00000KT 10SM OVC038 10/09 A2997 RMK AO1
 
KLHM - Lincoln, California, USA
Distance from station: W 88mi, 141km
Updated: Wed, 20-Jun-2018 9:35pm PDT
Clear
Clear
 Wind from SSE
Wind: SSE 7 mph , 11 km/h
Temperature: 70°F , 21°C
Dew Point: 50°F , 10°C
Humidity: 50%
Barometer: 29.89 inHg , 1012.2 hPa
Clouds: Clear
Visibility: 10 miles , 16 km
2018/06/21 04:35 KLHM 210435Z AUTO 15006KT 10SM CLR 21/10 A2989 RMK AO1
KBAB - Beale Afb/Marysv, California, USA
Distance from station: W 91mi, 147km
Updated: Wed, 20-Jun-2018 8:58pm PDT
Clear
Clear
 Wind from SSE
Wind: SSE 7 mph , 11 km/h
Temperature: 72°F , 22°C
Dew Point: 61°F , 16°C
Humidity: 69%
Barometer: 29.86 inHg , 1011.2 hPa
Clouds: Clear
Visibility: 10 miles , 16 km
2018/06/21 03:58 KBAB 210358Z AUTO 16006KT 10SM CLR 22/16 A2986 RMK AO2 SLP114 T02210157 $
 
KMHR - Mather Field, California, USA
Distance from station: WSW 91mi, 147km
Updated: Wed, 20-Jun-2018 9:45pm PDT
Clear
Clear
 Wind from SE
Wind: SE 6 mph , 9 km/h
Temperature: 63°F , 17°C
Dew Point: 48°F , 9°C
Humidity: 59%
Barometer: 29.91 inHg , 1012.9 hPa
Clouds: Clear
Visibility: 10 miles , 16 km
2018/06/21 04:45 KMHR 210445Z 13005KT 10SM SKC 17/09 A2991
KLOL - Lovelock, Nevada, USA
Distance from station: NE 94mi, 151km
Updated: Wed, 20-Jun-2018 9:53pm PDT
Clear
Clear
 Wind from W
Wind: W 17 mph , 28 km/h
Temperature: 79°F , 26°C
Dew Point: 23°F , -5°C
Humidity: 12%
Barometer: 30.00 inHg , 1015.9 hPa
Clouds: Clear
Visibility: 10 miles , 16 km
2018/06/21 04:53 KLOL 210453Z AUTO 28015KT 10SM CLR 26/M05 A3000 RMK AO2 SLP113 T02561050
 
KMCC - Mcclellan Afb, California, USA
Distance from station: WSW 94mi, 151km
Updated: Wed, 20-Jun-2018 9:35pm PDT
Clear
Clear
 Wind from S
Wind: S 10 mph , 17 km/h
Temperature: 68°F , 20°C
Dew Point: 46°F , 8°C
Humidity: 46%
Barometer: 29.92 inHg , 1013.2 hPa
Clouds: Clear
Visibility: 10 miles , 16 km
2018/06/21 04:35 KMCC 210435Z AUTO 17009KT 10SM CLR 20/08 A2992 RMK AO2
KMYV - Marysville, California, USA
Distance from station: W 99mi, 159km
Updated: Wed, 20-Jun-2018 9:53pm PDT
Clear
Clear
 Wind from SSE
Wind: SSE 13 mph , 20 km/h
Temperature: 73°F , 23°C
Dew Point: 54°F , 12°C
Humidity: 50%
Barometer: 29.89 inHg , 1012.2 hPa
Clouds: Clear
Visibility: 10 miles , 16 km
2018/06/21 04:53 KMYV 210453Z AUTO 16011KT 10SM CLR 23/12 A2989 RMK AO2 SLP124 T02280122
Honor Flight NV - Honoring all of our Veterans CoCoRaHS (Community Collaborative Rain, Hail and Snow Network) Station Number: NV-DG-2 Live Lightning Map - USA Reno Skywarn Spotter ID: DO21 AlertID Southwestern Weather Network Carson Valley Community Food Closet - providing for the needs of our community